createdAt,value
2019-01-06T00:00:32.361Z,102253.34
2019-01-06T00:03:04.377Z,102252.16
2019-01-06T00:05:35.361Z,102247.22
2019-01-06T00:08:04.407Z,102258.38
2019-01-06T00:10:34.371Z,102259.03
2019-01-06T00:13:03.536Z,102261.94
2019-01-06T00:15:37.546Z,102257.19
2019-01-06T00:18:08.626Z,102256.27
2019-01-06T00:20:43.287Z,102253.03
2019-01-06T00:23:12.431Z,102254.38
2019-01-06T00:25:46.923Z,102249.58
2019-01-06T00:28:16.023Z,102256.03
2019-01-06T00:30:46.871Z,102251.74
2019-01-06T00:33:17.817Z,102250.67
2019-01-06T00:35:52.554Z,102253.98
2019-01-06T00:38:27.280Z,102252.12
2019-01-06T00:41:01.198Z,102264.97
2019-01-06T00:43:30.289Z,102264.92
2019-01-06T00:46:00.130Z,102266.97
2019-01-06T00:48:32.923Z,102273.13
2019-01-06T00:51:04.774Z,102277.75
2019-01-06T00:56:22.962Z,102260.31
2019-01-06T00:58:52.854Z,102273.83
2019-01-06T01:01:24.736Z,102276.92
2019-01-06T01:03:55.735Z,102276.37
2019-01-06T01:06:30.307Z,102280.93
2019-01-06T01:08:59.547Z,102285.35
2019-01-06T01:11:31.397Z,102285.92
2019-01-06T01:14:00.481Z,102291.62
2019-01-06T01:16:29.565Z,102283.68
2019-01-06T01:19:01.547Z,102289.77
2019-01-06T01:21:30.625Z,102293.45
2019-01-06T01:24:00.487Z,102297.44
2019-01-06T01:32:30.736Z,102302.55
2019-01-06T01:35:05.259Z,102312.33
2019-01-06T01:37:34.330Z,102306.36
2019-01-06T01:40:03.375Z,102306.32
2019-01-06T01:42:33.234Z,102307.91
2019-01-06T01:45:02.298Z,102314.00
2019-01-06T01:47:35.348Z,102306.88
2019-01-06T01:50:08.266Z,102305.25
2019-01-06T01:52:42.285Z,102313.48
2019-01-06T01:55:14.275Z,102313.11
2019-01-06T01:57:45.234Z,102316.44
2019-01-06T02:00:14.278Z,102320.75
2019-01-06T02:02:48.957Z,102323.93
2019-01-06T02:05:19.936Z,102330.16
2019-01-06T02:07:49.071Z,102326.14
2019-01-06T02:10:23.631Z,102320.88
2019-01-06T02:12:53.658Z,102322.61
2019-01-06T02:15:23.599Z,102328.65
2019-01-06T02:17:55.617Z,102319.30
2019-01-06T02:20:25.691Z,102321.77
2019-01-06T02:23:00.402Z,102324.52
2019-01-06T02:25:29.475Z,102336.62
2019-01-06T02:28:03.602Z,102333.66
2019-01-06T02:30:38.508Z,102335.09
2019-01-06T02:33:10.447Z,102334.65
2019-01-06T02:35:39.477Z,102334.09
2019-01-06T02:38:12.465Z,102342.67
2019-01-06T02:40:47.399Z,102337.46
2019-01-06T02:43:18.480Z,102340.83
2019-01-06T02:45:50.494Z,102342.77
2019-01-06T02:48:26.248Z,102347.33
2019-01-06T02:50:56.113Z,102341.20
2019-01-06T02:53:25.174Z,102342.88
2019-01-06T02:56:00.200Z,102346.93
2019-01-06T02:58:29.231Z,102352.71
2019-01-06T03:01:04.032Z,102357.00
2019-01-06T03:06:39.627Z,102353.88
2019-01-06T03:09:10.615Z,102351.47
2019-01-06T03:11:40.511Z,102356.11
2019-01-06T03:14:09.545Z,102353.49
2019-01-06T03:16:38.579Z,102362.59
2019-01-06T03:19:07.725Z,102363.66
2019-01-06T03:21:42.583Z,102367.91
2019-01-06T03:24:12.566Z,102365.19
2019-01-06T03:26:42.457Z,102360.89
2019-01-06T03:29:11.550Z,102365.70
2019-01-06T03:31:40.638Z,102362.14
2019-01-06T03:34:10.541Z,102368.66
2019-01-06T03:36:41.528Z,102377.00
2019-01-06T03:39:16.174Z,102375.78
2019-01-06T03:41:50.878Z,102374.81
2019-01-06T03:44:22.084Z,102373.79
2019-01-06T03:46:51.144Z,102376.18
2019-01-06T03:52:05.262Z,102379.30
2019-01-06T03:54:36.194Z,102383.23
2019-01-06T03:57:10.913Z,102389.39
2019-01-06T03:59:41.927Z,102384.06
2019-01-06T04:02:16.564Z,102385.52
2019-01-06T04:04:46.738Z,102388.96
2019-01-06T04:07:16.615Z,102392.09
2019-01-06T04:09:50.759Z,102395.76
2019-01-06T04:12:23.558Z,102393.38
2019-01-06T04:14:52.629Z,102393.76
2019-01-06T04:17:21.676Z,102398.74
2019-01-06T04:19:56.249Z,102405.92
2019-01-06T04:22:28.246Z,102415.16
2019-01-06T04:25:01.270Z,102424.98
2019-01-06T04:27:31.241Z,102416.78
2019-01-06T04:30:05.151Z,102426.07
2019-01-06T04:32:40.202Z,102431.98
2019-01-06T04:35:09.251Z,102432.03
2019-01-06T04:37:44.166Z,102436.91
2019-01-06T04:40:14.182Z,102440.02
2019-01-06T04:42:44.184Z,102435.23
2019-01-06T04:45:18.837Z,102438.52
2019-01-06T04:47:53.489Z,102438.34
2019-01-06T04:50:28.212Z,102435.70
2019-01-06T04:53:02.130Z,102442.11
2019-01-06T04:55:33.945Z,102447.13
2019-01-06T04:58:08.644Z,102448.86
2019-01-06T05:00:37.739Z,102457.42
2019-01-06T05:05:50.717Z,102462.92
2019-01-06T05:08:22.693Z,102465.95
2019-01-06T05:10:51.955Z,102468.88
2019-01-06T05:13:30.432Z,102476.31
2019-01-06T05:15:59.529Z,102479.70
2019-01-06T05:18:29.469Z,102479.08
2019-01-06T05:20:59.456Z,102490.51
2019-01-06T05:29:12.456Z,102485.31
2019-01-06T05:31:44.318Z,102487.31
2019-01-06T05:36:57.426Z,102496.34
2019-01-06T05:39:28.748Z,102502.20
2019-01-06T05:42:01.767Z,102512.70
2019-01-06T05:44:30.980Z,102508.14
2019-01-06T05:47:04.939Z,102508.20
2019-01-06T05:49:38.846Z,102515.04
2019-01-06T05:52:09.883Z,102524.34
2019-01-06T05:54:42.737Z,102517.28
2019-01-06T05:57:13.703Z,102521.42
2019-01-06T05:59:48.461Z,102530.97
2019-01-06T06:02:20.373Z,102532.41
2019-01-06T06:04:51.358Z,102540.65
2019-01-06T06:07:22.230Z,102535.84
2019-01-06T06:09:51.272Z,102542.42
2019-01-06T06:12:21.845Z,102544.84
2019-01-06T06:14:50.941Z,102551.31
2019-01-06T06:17:19.984Z,102545.41
2019-01-06T06:19:49.919Z,102546.58
2019-01-06T06:22:21.889Z,102546.36
2019-01-06T06:24:56.772Z,102547.70
2019-01-06T06:27:25.806Z,102551.67
2019-01-06T06:30:00.479Z,102554.50
2019-01-06T06:38:04.449Z,102566.13
2019-01-06T06:40:34.426Z,102583.55
2019-01-06T06:43:08.435Z,102583.48
2019-01-06T06:48:22.442Z,102589.42
2019-01-06T06:50:58.971Z,102592.37
2019-01-06T06:53:34.050Z,102597.23
2019-01-06T06:56:04.063Z,102594.73
2019-01-06T06:58:36.955Z,102593.19
2019-01-06T07:01:13.387Z,102600.93
2019-01-06T07:03:50.268Z,102602.02
2019-01-06T07:06:20.180Z,102596.53
2019-01-06T07:08:53.066Z,102599.87
2019-01-06T07:11:24.059Z,102604.16
2019-01-06T07:13:53.109Z,102604.80
2019-01-06T07:16:35.835Z,102602.15
2019-01-06T07:19:05.705Z,102611.19
2019-01-06T07:21:34.757Z,102609.17
2019-01-06T07:24:05.788Z,102607.41
2019-01-06T07:26:34.827Z,102611.06
2019-01-06T07:29:04.688Z,102604.91
2019-01-06T07:31:33.754Z,102608.56
2019-01-06T07:34:06.762Z,102607.89
2019-01-06T07:36:35.824Z,102606.98
2019-01-06T07:39:05.668Z,102605.87
2019-01-06T07:41:39.718Z,102606.62
2019-01-06T07:44:08.753Z,102613.59
2019-01-06T07:46:40.858Z,102618.23
2019-01-06T07:49:09.897Z,102617.28
2019-01-06T07:51:39.862Z,102624.06
2019-01-06T07:54:09.748Z,102620.76
2019-01-06T07:56:38.780Z,102628.81
2019-01-06T07:59:13.461Z,102624.17
2019-01-06T08:01:42.501Z,102626.12
2019-01-06T08:04:11.585Z,102633.11
2019-01-06T08:06:43.487Z,102640.73
2019-01-06T08:09:15.317Z,102634.23
2019-01-06T08:11:44.520Z,102646.06
2019-01-06T08:14:13.517Z,102637.96
2019-01-06T08:16:47.754Z,102636.21
2019-01-06T08:19:16.791Z,102645.47
2019-01-06T08:21:51.770Z,102641.00
2019-01-06T08:24:21.760Z,102641.50
2019-01-06T08:26:52.636Z,102645.30
2019-01-06T08:29:21.678Z,102647.47
2019-01-06T08:34:45.374Z,102651.88
2019-01-06T08:37:15.395Z,102656.41
2019-01-06T08:39:48.392Z,102663.52
2019-01-06T08:42:20.442Z,102668.17
2019-01-06T08:44:49.500Z,102663.66
2019-01-06T08:47:22.872Z,102661.86
2019-01-06T08:49:51.929Z,102661.98
2019-01-06T08:52:26.979Z,102660.83
2019-01-06T08:54:57.967Z,102665.45
2019-01-06T08:57:29.020Z,102661.03
2019-01-06T08:59:58.071Z,102669.05
2019-01-06T09:02:27.113Z,102669.22
2019-01-06T09:04:59.149Z,102667.42
2019-01-06T09:07:33.752Z,102665.55
2019-01-06T09:10:08.469Z,102670.89
2019-01-06T09:15:23.345Z,102667.34
2019-01-06T09:17:58.073Z,102667.02
2019-01-06T09:20:32.780Z,102672.73
2019-01-06T09:23:07.426Z,102667.03
2019-01-06T09:25:40.938Z,102675.86
2019-01-06T09:28:06.340Z,102676.66
2019-01-06T09:30:38.376Z,102681.17
2019-01-06T09:33:09.355Z,102676.53
2019-01-06T09:35:38.403Z,102678.69
2019-01-06T09:38:08.446Z,102681.74
2019-01-06T09:40:43.037Z,102679.76
2019-01-06T09:43:18.070Z,102685.56
2019-01-06T09:45:47.109Z,102685.51
2019-01-06T09:48:21.670Z,102688.52
2019-01-06T09:50:51.518Z,102689.70
2019-01-06T09:53:21.416Z,102694.25
2019-01-06T09:55:51.576Z,102695.09
2019-01-06T09:58:21.458Z,102705.77
2019-01-06T10:00:52.443Z,102710.88
2019-01-06T10:03:23.410Z,102706.46
2019-01-06T10:05:53.407Z,102712.19
2019-01-06T10:08:24.373Z,102704.99
2019-01-06T10:10:58.309Z,102709.64
2019-01-06T10:13:32.868Z,102704.76
2019-01-06T10:16:02.737Z,102716.97
2019-01-06T10:18:33.750Z,102714.45
2019-01-06T10:21:08.748Z,102715.48
2019-01-06T10:23:37.792Z,102719.89
2019-01-06T10:26:08.640Z,102717.59
2019-01-06T10:28:41.919Z,102727.50
2019-01-06T10:31:16.493Z,102724.28
2019-01-06T10:34:03.786Z,102726.30
2019-01-06T10:36:32.835Z,102722.42
2019-01-06T10:39:03.678Z,102722.26
2019-01-06T10:41:38.637Z,102722.55
2019-01-06T10:44:12.637Z,102725.95
2019-01-06T10:46:42.541Z,102733.55
2019-01-06T10:49:17.474Z,102732.20
2019-01-06T10:51:46.554Z,102727.54
2019-01-06T10:54:19.519Z,102728.47
2019-01-06T10:56:55.409Z,102727.72
2019-01-06T10:59:24.455Z,102728.19
2019-01-06T11:01:58.729Z,102722.72
2019-01-06T11:04:33.413Z,102730.11
2019-01-06T11:07:03.426Z,102734.36
2019-01-06T11:09:35.401Z,102737.06
2019-01-06T11:12:10.141Z,102732.24
2019-01-06T11:14:39.949Z,102732.93
2019-01-06T11:17:08.997Z,102739.31
2019-01-06T11:19:38.905Z,102732.89
2019-01-06T11:22:10.959Z,102730.70
2019-01-06T11:24:41.795Z,102733.95
2019-01-06T11:27:11.777Z,102732.84
2019-01-06T11:29:40.823Z,102728.19
2019-01-06T11:32:09.916Z,102729.27
2019-01-06T11:34:39.776Z,102737.23
2019-01-06T11:37:08.826Z,102739.21
2019-01-06T11:39:37.937Z,102739.64
2019-01-06T11:42:10.779Z,102740.41
2019-01-06T11:44:46.816Z,102744.48
2019-01-06T11:52:44.836Z,102750.91
2019-01-06T11:55:19.608Z,102746.83
2019-01-06T11:57:48.656Z,102754.39
2019-01-06T12:00:21.595Z,102752.44
2019-01-06T12:02:50.647Z,102752.92
2019-01-06T12:05:20.624Z,102754.89
2019-01-06T12:07:50.500Z,102748.97
2019-01-06T12:10:25.466Z,102743.56
2019-01-06T12:12:56.597Z,102744.63
2019-01-06T12:15:31.258Z,102745.70
2019-01-06T12:18:02.127Z,102739.78
2019-01-06T12:23:34.331Z,102745.00
2019-01-06T12:26:08.871Z,102747.19
2019-01-06T12:31:21.727Z,102745.97
2019-01-06T12:33:51.609Z,102750.28
2019-01-06T12:36:20.656Z,102756.73
2019-01-06T12:38:52.663Z,102750.44
2019-01-06T12:41:27.374Z,102757.44
2019-01-06T12:44:02.106Z,102759.33
2019-01-06T12:46:31.972Z,102761.67
2019-01-06T12:49:05.987Z,102757.20
2019-01-06T12:51:43.649Z,102766.83
2019-01-06T12:54:12.625Z,102777.23
2019-01-06T12:59:32.011Z,102777.04
2019-01-06T13:02:02.105Z,102781.86
2019-01-06T13:04:34.703Z,102781.75
2019-01-06T13:07:09.389Z,102788.36
2019-01-06T13:09:42.460Z,102778.59
2019-01-06T13:12:16.379Z,102779.47
2019-01-06T13:14:46.385Z,102782.80
2019-01-06T13:17:21.099Z,102787.09
2019-01-06T13:19:53.883Z,102793.58
2019-01-06T13:22:23.726Z,102790.25
2019-01-06T13:24:52.795Z,102796.55
2019-01-06T13:27:23.696Z,102795.73
2019-01-06T13:29:52.747Z,102798.70
2019-01-06T13:32:22.609Z,102796.23
2019-01-06T13:34:53.801Z,102793.55
2019-01-06T13:37:22.862Z,102788.07
2019-01-06T13:39:52.636Z,102795.64
2019-01-06T13:42:22.523Z,102797.28
2019-01-06T13:44:51.569Z,102794.43
2019-01-06T13:47:23.523Z,102799.77
2019-01-06T13:49:58.278Z,102800.17
2019-01-06T13:52:33.405Z,102811.78
2019-01-06T13:55:07.984Z,102818.41
2019-01-06T14:00:23.846Z,102825.96
2019-01-06T14:02:55.302Z,102825.38
2019-01-06T14:05:30.209Z,102831.95
2019-01-06T14:08:01.254Z,102832.86
2019-01-06T14:10:35.413Z,102834.55
2019-01-06T14:13:05.420Z,102843.58
2019-01-06T14:15:40.176Z,102836.36
2019-01-06T14:18:14.751Z,102837.59
2019-01-06T14:20:43.818Z,102843.41
2019-01-06T14:23:13.661Z,102845.62
2019-01-06T14:25:42.927Z,102847.29
2019-01-06T14:28:17.475Z,102843.94
2019-01-06T14:30:49.329Z,102841.68
2019-01-06T14:33:19.231Z,102845.32
2019-01-06T14:35:50.243Z,102848.31
2019-01-06T14:38:22.103Z,102845.49
2019-01-06T14:40:52.271Z,102844.53
2019-01-06T14:46:35.979Z,102842.37
2019-01-06T14:49:06.944Z,102843.95
2019-01-06T14:51:36.825Z,102841.02
2019-01-06T14:54:08.685Z,102839.38
2019-01-06T14:56:43.234Z,102848.90
2019-01-06T14:59:12.283Z,102853.25
2019-01-06T15:01:41.323Z,102857.22
2019-01-06T15:04:13.356Z,102862.62
2019-01-06T15:06:46.227Z,102857.34
2019-01-06T15:09:20.910Z,102860.05
2019-01-06T15:11:55.601Z,102863.42
2019-01-06T15:14:24.708Z,102861.39
2019-01-06T15:16:53.738Z,102860.63
2019-01-06T15:19:23.783Z,102864.11
2019-01-06T15:21:52.794Z,102857.25
2019-01-06T15:24:21.846Z,102867.20
2019-01-06T15:26:57.134Z,102869.14
2019-01-06T15:29:31.840Z,102870.70
2019-01-06T15:32:03.023Z,102868.47
2019-01-06T15:34:37.928Z,102872.58
2019-01-06T15:37:07.020Z,102872.88
2019-01-06T15:42:22.878Z,102868.14
2019-01-06T15:44:54.678Z,102858.67
2019-01-06T15:47:26.635Z,102861.42
2019-01-06T15:50:01.196Z,102865.78
2019-01-06T15:52:31.039Z,102872.11
2019-01-06T15:55:01.895Z,102869.35
2019-01-06T15:57:30.939Z,102867.02
2019-01-06T16:00:02.857Z,102862.48
2019-01-06T16:02:37.832Z,102871.23
2019-01-06T16:05:12.477Z,102875.55
2019-01-06T16:07:42.479Z,102872.03
2019-01-06T16:10:17.063Z,102871.22
2019-01-06T16:12:48.035Z,102870.82
2019-01-06T16:15:17.832Z,102873.19
2019-01-06T16:17:51.695Z,102875.55
2019-01-06T16:20:22.619Z,102880.02
2019-01-06T16:22:57.304Z,102875.63
2019-01-06T16:25:27.326Z,102873.28
2019-01-06T16:27:56.389Z,102872.21
2019-01-06T16:30:26.756Z,102876.09
2019-01-06T16:33:01.379Z,102880.43
2019-01-06T16:35:33.320Z,102882.48
2019-01-06T16:38:02.431Z,102881.47
2019-01-06T16:40:35.476Z,102881.61
2019-01-06T16:43:07.550Z,102883.95
2019-01-06T16:45:37.539Z,102883.50
2019-01-06T16:48:10.154Z,102871.45
2019-01-06T16:50:39.558Z,102875.05
2019-01-06T16:53:12.464Z,102878.42
2019-01-06T16:55:43.553Z,102883.66
2019-01-06T16:58:12.625Z,102871.21
2019-01-06T17:00:46.630Z,102875.30
2019-01-06T17:03:35.179Z,102875.95
2019-01-06T17:06:10.109Z,102867.03
2019-01-06T17:08:39.154Z,102864.63
2019-01-06T17:11:14.383Z,102864.89
2019-01-06T17:13:45.265Z,102873.24
2019-01-06T17:19:03.707Z,102874.27
2019-01-06T17:21:36.714Z,102876.94
2019-01-06T17:24:28.478Z,102877.61
2019-01-06T17:27:00.422Z,102877.06
2019-01-06T17:29:32.413Z,102879.89
2019-01-06T17:32:06.449Z,102883.42
2019-01-06T17:34:40.429Z,102883.13
2019-01-06T17:37:13.537Z,102880.39
2019-01-06T17:39:44.530Z,102883.08
2019-01-06T17:42:15.712Z,102876.27
2019-01-06T17:44:48.630Z,102881.10
2019-01-06T17:47:17.717Z,102882.98
2019-01-06T17:49:52.416Z,102876.59
2019-01-06T17:52:23.421Z,102878.05
2019-01-06T17:54:55.407Z,102885.50
2019-01-06T17:57:30.082Z,102887.73
2019-01-06T18:00:02.002Z,102876.50
2019-01-06T18:02:36.618Z,102873.75
2019-01-06T18:05:06.608Z,102886.43
2019-01-06T18:07:35.655Z,102890.66
2019-01-06T18:10:05.671Z,102885.34
2019-01-06T18:12:36.567Z,102875.11
2019-01-06T18:15:08.629Z,102866.14
2019-01-06T18:17:38.642Z,102861.78
2019-01-06T18:20:09.661Z,102858.50
2019-01-06T18:22:40.514Z,102863.27
2019-01-06T18:25:10.359Z,102866.36
2019-01-06T18:27:42.287Z,102863.20
2019-01-06T18:30:16.068Z,102867.04
2019-01-06T18:32:46.066Z,102871.66
2019-01-06T18:35:15.956Z,102862.05
2019-01-06T18:37:45.828Z,102866.22
2019-01-06T18:40:15.734Z,102863.06
2019-01-06T18:42:49.754Z,102861.13
2019-01-06T18:45:21.653Z,102862.81
2019-01-06T18:47:50.705Z,102868.90
2019-01-06T18:50:25.333Z,102874.52
2019-01-06T18:52:57.223Z,102874.05
2019-01-06T18:55:30.097Z,102880.31
2019-01-06T18:57:59.164Z,102878.13
2019-01-06T19:00:30.036Z,102878.50
2019-01-06T19:02:59.330Z,102885.06
2019-01-06T19:05:33.150Z,102878.39
2019-01-06T19:08:05.270Z,102887.87
2019-01-06T19:10:38.266Z,102882.98
2019-01-06T19:13:13.208Z,102883.08
2019-01-06T19:15:47.776Z,102883.30
2019-01-06T19:18:20.817Z,102880.17
2019-01-06T19:23:35.409Z,102881.63
2019-01-06T19:26:04.595Z,102878.58
2019-01-06T19:28:33.746Z,102882.17
2019-01-06T19:31:03.806Z,102875.97
2019-01-06T19:33:39.035Z,102875.17
2019-01-06T19:36:28.546Z,102874.02
2019-01-06T19:39:03.207Z,102875.59
2019-01-06T19:41:38.788Z,102877.70
2019-01-06T19:44:09.076Z,102877.41
2019-01-06T19:46:41.064Z,102872.15
2019-01-06T19:49:13.194Z,102865.23
2019-01-06T19:51:42.376Z,102862.71
2019-01-06T19:54:20.326Z,102864.39
2019-01-06T19:56:49.465Z,102864.38
2019-01-06T20:02:07.601Z,102857.97
2019-01-06T20:04:37.790Z,102856.69
2019-01-06T20:07:09.920Z,102859.34
2019-01-06T20:09:41.078Z,102856.09
2019-01-06T20:12:11.204Z,102854.13
2019-01-06T20:17:25.580Z,102855.62
2019-01-06T20:19:55.612Z,102855.30
2019-01-06T20:25:10.818Z,102865.72
2019-01-06T20:27:41.136Z,102860.02
2019-01-06T20:30:12.915Z,102863.47
2019-01-06T20:32:42.948Z,102867.69
2019-01-06T20:35:12.935Z,102867.92
2019-01-06T20:43:19.838Z,102875.53
2019-01-06T20:45:53.414Z,102881.52
2019-01-06T20:48:28.131Z,102869.81
2019-01-06T20:50:57.189Z,102873.06
2019-01-06T20:53:28.177Z,102880.03
2019-01-06T20:55:58.189Z,102879.29
2019-01-06T20:58:30.214Z,102887.63
2019-01-06T21:01:04.837Z,102891.38
2019-01-06T21:03:48.926Z,102887.66
2019-01-06T21:06:21.806Z,102893.22
2019-01-06T21:08:50.904Z,102900.59
2019-01-06T21:11:19.945Z,102897.64
2019-01-06T21:13:49.966Z,102897.70
2019-01-06T21:16:21.866Z,102899.31
2019-01-06T21:18:51.900Z,102898.06
2019-01-06T21:21:27.396Z,102900.78
2019-01-06T21:26:40.705Z,102896.34
2019-01-06T21:29:10.597Z,102897.16
2019-01-06T21:31:43.543Z,102896.71
2019-01-06T21:34:12.635Z,102894.95
2019-01-06T21:36:45.434Z,102892.08
2019-01-06T21:39:16.490Z,102896.61
2019-01-06T21:41:52.687Z,102901.22
2019-01-06T21:44:23.068Z,102903.55
2019-01-06T21:46:57.637Z,102893.25
2019-01-06T21:49:32.300Z,102890.00
2019-01-06T21:54:51.489Z,102891.54
2019-01-06T21:57:22.342Z,102891.83
2019-01-06T21:59:51.409Z,102891.98
2019-01-06T22:02:21.318Z,102897.60
2019-01-06T22:04:50.372Z,102889.45
2019-01-06T22:07:20.428Z,102888.54
2019-01-06T22:09:54.449Z,102883.02
2019-01-06T22:15:08.604Z,102890.27
2019-01-06T22:17:38.424Z,102888.09
2019-01-06T22:20:07.498Z,102885.95
2019-01-06T22:22:36.582Z,102890.03
2019-01-06T22:25:09.479Z,102882.88
2019-01-06T22:27:39.514Z,102894.55
2019-01-06T22:30:12.527Z,102890.30
2019-01-06T22:32:47.260Z,102886.70
2019-01-06T22:35:21.973Z,102891.83
2019-01-06T22:40:34.776Z,102889.12
2019-01-06T22:43:06.702Z,102886.79
2019-01-06T22:45:41.319Z,102888.09
2019-01-06T22:48:10.418Z,102888.31
2019-01-06T22:50:43.274Z,102882.30
2019-01-06T22:53:14.165Z,102892.08
2019-01-06T22:55:48.858Z,102880.84
2019-01-06T22:58:19.816Z,102878.00
2019-01-06T23:00:52.699Z,102877.48
2019-01-06T23:03:31.408Z,102879.11
2019-01-06T23:06:06.054Z,102877.53
2019-01-06T23:08:36.069Z,102872.63
2019-01-06T23:11:10.048Z,102871.51
2019-01-06T23:16:21.949Z,102871.46
2019-01-06T23:18:51.883Z,102871.41
2019-01-06T23:21:20.970Z,102871.85
2019-01-06T23:23:50.831Z,102872.30
2019-01-06T23:26:20.935Z,102875.34
2019-01-06T23:28:55.512Z,102870.09
2019-01-06T23:31:24.618Z,102860.80
2019-01-06T23:33:53.666Z,102859.56
2019-01-06T23:36:24.513Z,102856.54
2019-01-06T23:38:57.570Z,102858.64
2019-01-06T23:41:30.483Z,102854.50
2019-01-06T23:44:00.503Z,102855.49
2019-01-06T23:49:13.649Z,102856.02
2019-01-06T23:51:48.394Z,102854.17
2019-01-06T23:54:18.432Z,102855.02
2019-01-06T23:56:50.421Z,102853.05
2019-01-06T23:59:23.504Z,102863.66
